Donnington, United Kingdom
Current Conditions -  °F | °C
As of 2:50 PM on Friday 24 Oct 2014 (Local Time) from EGVN Reporting Station
Broken Clouds Broken Clouds  
Wind Chill: 16°   Ceiling: 1200
Heat Index: 16°   Visibility: 6mi
Dew Point: 13°   Wind: 7mph
Humidity: 82%   Direction: 210°SSW
Pressure: 29.88"   Gusts: NA
Location:  51.95°N, 1.72°W
Report Text: EGVN 241350Z 21006KT 9999 FEW006 BKN012 16/13 Q1012 TEMPO 4000 RADZ SCT006
Loading
Personal Weather Stations






























Interactive Weather Map
Tropical Storm Tracking
New forecast layout! Learn more

10-Day Weather Forecast

Advertisements
Track Severe Weather on mobile